METAR Data
IDs: Format: Raw Decoded Include TAF

Data at: 2151 UTC 18 Apr 2021

METAR for:KDRT (Del Rio Intl, TX, US)
Text:KDRT 182053Z AUTO 00000KT 10SM BKN085 22/04 A3008 RMK AO2 SLP175 T02170039 58034 $
Temperature: 21.7°C ( 71°F)
Dewpoint: 3.9°C ( 39°F) [RH = 31%]
Pressure (altimeter):30.08 inches Hg (1018.7 mb) [Sea level pressure: 1017.5 mb]
Winds:calm
Visibility:10 or more sm (16+ km)
Ceiling:8500 feet AGL
Clouds: broken clouds at 8500 feet AGL
QC Flag:automated observation with no human augmentation; SOME DATA ABOVE MAY BE INACCURATE!!!"$" is an indication the sensor requires maintenance.